Bliss, NY (14024)

1:28 PM EDT on March 31, 2015 (GMT -0400)
W2TGR | | Change Station
CLOSE
Current Station
Personal Weather Station
Location: Bliss, NY
Elevation: 1975 ft
Nearby Weather Stations

Elev 1975 ft 42.58 °N, 78.28 °W | Updated 4 seconds ago

Overcast
Overcast
34.0 °F
Feels Like 29 °F
N
5.4
Wind Variable Wind from NE
Gusts 8.3 mph

Today
High -- | Low -- °F
--% Chance of Precip.
Yesterday
High -- | Low -- °F
Precip. -- in
6:57 AM 7:37 PM
Waxing Gibbous, 88% visible
Pressure 29.70 in
Visibility 2.0 miles
Clouds Mostly Cloudy 700 ft
Mostly Cloudy 1800 ft
Overcast 3900 ft
Windchill 29 °F
Dew Point 21 °F
Humidity 59%
Rainfall 0.00 in
Snow Depth Not available.
UV 2 out of 12
Pollen .70 out of 12
Air Quality Not available.
Flu Activity Not available.
METAR KOLE 311715Z AUTO 08006KT 2SM -SN BKN007 BKN018 OVC039 M02/M02 A2970 RMK AO2

More Conditions Fewer Conditions

Pressure 29.70 in
Visibility 2.0 miles
Clouds Mostly Cloudy 700 ft
Mostly Cloudy 1800 ft
Overcast 3900 ft
Windchill 29 °F
Dew Point 21 °F
Humidity 59%
Rainfall 0.00 in
Snow Depth Not available.
UV 2 out of 12
Pollen .70 out of 12
Air Quality Not available.
Flu Activity Not available.
METAR KOLE 311715Z AUTO 08006KT 2SM -SN BKN007 BKN018 OVC039 M02/M02 A2970 RMK AO2

More Conditions Fewer Conditions

10-Day Weather Forecast

Almanac

Astronomy

Mar. 31, 2015 Rise Set
Actual Time
Civil Twilight
Nautical Twilight
Astronomical Twilight
Moon
Length of Visible Light
Length of Day
Tomorrow will be .
, % of the Moon is Illuminated

Today's Extremes

State Highs State Lows

Community

WunderPhotos

Upload Photos

1,809,787 photos uploaded!

WunderBlogs® & News

Nearby

Air Quality

  Air Quality AQ Index Pollutant
Not available.

Snow Depth

Station Depth Elevation

Earthquake Activity

City Distance Mag. Time & Date
Minimum magnitude displayed is 2.5.

Coastal Water Temperatures

Place Temperature

Stations

Nearby Weather Stations

Station Location Temp. Windchill Dew Point Humidity Wind Precip. Elev Updated Type